sensor_id;sensor_type;location;lat;lon;timestamp;P1;durP1;ratioP1;P2;durP2;ratioP2
60468;SDS011;46316;47.582;10.238;2022-07-23T00:00:53;10.93;;;9.70;;
60468;SDS011;46316;47.582;10.238;2022-07-23T00:03:18;8.60;;;7.75;;
60468;SDS011;46316;47.582;10.238;2022-07-23T00:05:44;10.10;;;8.73;;
60468;SDS011;46316;47.582;10.238;2022-07-23T00:08:10;10.13;;;9.13;;
60468;SDS011;46316;47.582;10.238;2022-07-23T00:10:35;11.65;;;8.75;;
60468;SDS011;46316;47.582;10.238;2022-07-23T00:13:02;9.70;;;8.70;;
60468;SDS011;46316;47.582;10.238;2022-07-23T00:15:28;10.38;;;8.38;;
60468;SDS011;46316;47.582;10.238;2022-07-23T00:17:54;9.43;;;8.20;;
60468;SDS011;46316;47.582;10.238;2022-07-23T00:20:20;8.50;;;7.65;;
60468;SDS011;46316;47.582;10.238;2022-07-23T00:22:46;10.40;;;7.55;;
60468;SDS011;46316;47.582;10.238;2022-07-23T00:25:16;7.85;;;7.00;;
60468;SDS011;46316;47.582;10.238;2022-07-23T00:27:42;9.20;;;7.53;;
60468;SDS011;46316;47.582;10.238;2022-07-23T00:30:08;9.00;;;8.10;;
60468;SDS011;46316;47.582;10.238;2022-07-23T00:32:51;9.98;;;7.55;;
60468;SDS011;46316;47.582;10.238;2022-07-23T00:35:21;7.85;;;7.15;;
60468;SDS011;46316;47.582;10.238;2022-07-23T00:37:48;8.55;;;7.60;;
60468;SDS011;46316;47.582;10.238;2022-07-23T00:40:14;7.40;;;6.65;;
60468;SDS011;46316;47.582;10.238;2022-07-23T00:42:40;7.47;;;6.07;;
60468;SDS011;46316;47.582;10.238;2022-07-23T00:45:06;6.43;;;5.82;;
60468;SDS011;46316;47.582;10.238;2022-07-23T00:47:32;9.55;;;6.13;;
60468;SDS011;46316;47.582;10.238;2022-07-23T00:49:58;6.38;;;5.70;;
60468;SDS011;46316;47.582;10.238;2022-07-23T00:52:24;5.43;;;4.93;;
60468;SDS011;46316;47.582;10.238;2022-07-23T00:54:49;6.78;;;5.45;;
60468;SDS011;46316;47.582;10.238;2022-07-23T00:57:15;5.82;;;5.30;;
60468;SDS011;46316;47.582;10.238;2022-07-23T00:59:41;5.93;;;5.40;;
60468;SDS011;46316;47.582;10.238;2022-07-23T01:02:07;6.38;;;5.47;;
60468;SDS011;46316;47.582;10.238;2022-07-23T01:04:32;6.10;;;5.28;;
60468;SDS011;46316;47.582;10.238;2022-07-23T01:06:58;6.80;;;5.53;;
60468;SDS011;46316;47.582;10.238;2022-07-23T01:09:24;6.65;;;5.70;;
60468;SDS011;46316;47.582;10.238;2022-07-23T01:11:51;6.32;;;5.75;;
60468;SDS011;46316;47.582;10.238;2022-07-23T01:14:18;6.20;;;5.63;;
60468;SDS011;46316;47.582;10.238;2022-07-23T01:16:44;6.63;;;6.03;;
60468;SDS011;46316;47.582;10.238;2022-07-23T01:19:11;7.60;;;5.80;;
60468;SDS011;46316;47.582;10.238;2022-07-23T01:21:42;7.85;;;6.38;;
60468;SDS011;46316;47.582;10.238;2022-07-23T01:24:10;10.75;;;6.57;;
60468;SDS011;46316;47.582;10.238;2022-07-23T01:26:37;6.82;;;6.10;;
60468;SDS011;46316;47.582;10.238;2022-07-23T01:29:03;8.43;;;7.53;;
60468;SDS011;46316;47.582;10.238;2022-07-23T01:31:29;7.88;;;7.07;;
60468;SDS011;46316;47.582;10.238;2022-07-23T01:33:55;10.98;;;7.10;;
60468;SDS011;46316;47.582;10.238;2022-07-23T01:36:21;8.63;;;6.55;;
60468;SDS011;46316;47.582;10.238;2022-07-23T01:38:47;8.13;;;7.07;;
60468;SDS011;46316;47.582;10.238;2022-07-23T01:41:13;12.05;;;7.57;;
60468;SDS011;46316;47.582;10.238;2022-07-23T01:43:38;6.72;;;6.10;;
60468;SDS011;46316;47.582;10.238;2022-07-23T01:46:05;9.55;;;6.97;;
60468;SDS011;46316;47.582;10.238;2022-07-23T01:48:30;11.90;;;7.90;;
60468;SDS011;46316;47.582;10.238;2022-07-23T01:50:56;12.45;;;7.05;;
60468;SDS011;46316;47.582;10.238;2022-07-23T01:53:22;8.02;;;6.07;;
60468;SDS011;46316;47.582;10.238;2022-07-23T01:55:47;8.00;;;6.63;;
60468;SDS011;46316;47.582;10.238;2022-07-23T01:58:13;8.38;;;7.20;;
60468;SDS011;46316;47.582;10.238;2022-07-23T02:00:38;8.60;;;7.70;;
60468;SDS011;46316;47.582;10.238;2022-07-23T02:03:04;8.73;;;7.50;;
60468;SDS011;46316;47.582;10.238;2022-07-23T02:05:30;7.22;;;6.63;;
60468;SDS011;46316;47.582;10.238;2022-07-23T02:07:56;10.50;;;7.63;;
60468;SDS011;46316;47.582;10.238;2022-07-23T02:10:23;9.13;;;8.25;;
60468;SDS011;46316;47.582;10.238;2022-07-23T02:12:49;9.30;;;8.40;;
60468;SDS011;46316;47.582;10.238;2022-07-23T02:15:15;9.00;;;8.02;;
60468;SDS011;46316;47.582;10.238;2022-07-23T02:17:40;9.68;;;8.40;;
60468;SDS011;46316;47.582;10.238;2022-07-23T02:20:06;9.32;;;8.23;;
60468;SDS011;46316;47.582;10.238;2022-07-23T02:22:33;10.27;;;8.48;;
60468;SDS011;46316;47.582;10.238;2022-07-23T02:24:59;10.35;;;9.25;;
60468;SDS011;46316;47.582;10.238;2022-07-23T02:27:24;10.35;;;9.35;;
60468;SDS011;46316;47.582;10.238;2022-07-23T02:29:50;11.70;;;9.30;;
60468;SDS011;46316;47.582;10.238;2022-07-23T02:32:16;11.30;;;9.65;;
60468;SDS011;46316;47.582;10.238;2022-07-23T02:34:41;10.48;;;9.48;;
60468;SDS011;46316;47.582;10.238;2022-07-23T02:37:07;10.23;;;9.30;;
60468;SDS011;46316;47.582;10.238;2022-07-23T02:39:33;10.63;;;9.57;;
60468;SDS011;46316;47.582;10.238;2022-07-23T02:41:59;10.98;;;8.90;;
60468;SDS011;46316;47.582;10.238;2022-07-23T02:44:25;10.40;;;8.45;;
60468;SDS011;46316;47.582;10.238;2022-07-23T02:46:50;10.07;;;8.55;;
60468;SDS011;46316;47.582;10.238;2022-07-23T02:49:16;11.70;;;9.18;;
60468;SDS011;46316;47.582;10.238;2022-07-23T02:51:41;10.30;;;9.15;;
60468;SDS011;46316;47.582;10.238;2022-07-23T02:54:07;10.23;;;9.32;;
60468;SDS011;46316;47.582;10.238;2022-07-23T02:56:33;10.13;;;9.13;;
60468;SDS011;46316;47.582;10.238;2022-07-23T02:58:58;11.48;;;10.05;;
60468;SDS011;46316;47.582;10.238;2022-07-23T03:01:24;10.43;;;9.38;;
60468;SDS011;46316;47.582;10.238;2022-07-23T03:03:49;10.10;;;9.20;;
60468;SDS011;46316;47.582;10.238;2022-07-23T03:06:16;10.05;;;9.07;;
60468;SDS011;46316;47.582;10.238;2022-07-23T03:08:41;10.68;;;9.35;;
60468;SDS011;46316;47.582;10.238;2022-07-23T03:11:07;11.40;;;10.30;;
60468;SDS011;46316;47.582;10.238;2022-07-23T03:13:36;11.43;;;10.23;;
60468;SDS011;46316;47.582;10.238;2022-07-23T03:16:02;10.30;;;9.25;;
60468;SDS011;46316;47.582;10.238;2022-07-23T03:18:28;10.80;;;9.75;;
60468;SDS011;46316;47.582;10.238;2022-07-23T03:20:53;10.07;;;9.10;;
60468;SDS011;46316;47.582;10.238;2022-07-23T03:23:19;9.88;;;8.85;;
60468;SDS011;46316;47.582;10.238;2022-07-23T03:25:44;10.13;;;9.23;;
60468;SDS011;46316;47.582;10.238;2022-07-23T03:28:13;9.98;;;8.98;;
60468;SDS011;46316;47.582;10.238;2022-07-23T03:30:40;9.70;;;8.77;;
60468;SDS011;46316;47.582;10.238;2022-07-23T03:33:06;9.13;;;8.07;;
60468;SDS011;46316;47.582;10.238;2022-07-23T03:35:32;10.13;;;9.20;;
60468;SDS011;46316;47.582;10.238;2022-07-23T03:37:57;9.85;;;8.95;;
60468;SDS011;46316;47.582;10.238;2022-07-23T03:40:23;9.82;;;8.82;;
60468;SDS011;46316;47.582;10.238;2022-07-23T03:42:48;9.55;;;8.65;;
60468;SDS011;46316;47.582;10.238;2022-07-23T03:45:14;9.80;;;8.20;;
60468;SDS011;46316;47.582;10.238;2022-07-23T03:47:39;8.93;;;8.02;;
60468;SDS011;46316;47.582;10.238;2022-07-23T03:50:05;9.52;;;8.63;;
60468;SDS011;46316;47.582;10.238;2022-07-23T03:52:31;8.90;;;8.10;;
60468;SDS011;46316;47.582;10.238;2022-07-23T03:54:57;9.25;;;8.18;;
60468;SDS011;46316;47.582;10.238;2022-07-23T03:57:22;9.30;;;8.50;;
60468;SDS011;46316;47.582;10.238;2022-07-23T03:59:48;10.13;;;9.13;;
60468;SDS011;46316;47.582;10.238;2022-07-23T04:02:14;9.07;;;8.27;;
60468;SDS011;46316;47.582;10.238;2022-07-23T04:04:39;8.98;;;8.07;;
60468;SDS011;46316;47.582;10.238;2022-07-23T04:07:05;9.20;;;8.30;;
60468;SDS011;46316;47.582;10.238;2022-07-23T04:09:32;9.50;;;8.50;;
60468;SDS011;46316;47.582;10.238;2022-07-23T04:11:57;9.70;;;8.80;;
60468;SDS011;46316;47.582;10.238;2022-07-23T04:14:23;11.80;;;8.65;;
60468;SDS011;46316;47.582;10.238;2022-07-23T04:16:48;9.73;;;8.88;;
60468;SDS011;46316;47.582;10.238;2022-07-23T04:19:14;9.73;;;8.82;;
60468;SDS011;46316;47.582;10.238;2022-07-23T04:21:39;9.23;;;8.32;;
60468;SDS011;46316;47.582;10.238;2022-07-23T04:24:05;9.05;;;8.23;;
60468;SDS011;46316;47.582;10.238;2022-07-23T04:26:31;8.32;;;7.50;;
60468;SDS011;46316;47.582;10.238;2022-07-23T04:28:56;8.35;;;7.50;;
60468;SDS011;46316;47.582;10.238;2022-07-23T04:31:22;8.95;;;8.13;;
60468;SDS011;46316;47.582;10.238;2022-07-23T04:33:47;9.10;;;8.20;;
60468;SDS011;46316;47.582;10.238;2022-07-23T04:36:13;8.85;;;8.07;;
60468;SDS011;46316;47.582;10.238;2022-07-23T04:38:38;9.52;;;8.63;;
60468;SDS011;46316;47.582;10.238;2022-07-23T04:41:04;8.68;;;7.90;;
60468;SDS011;46316;47.582;10.238;2022-07-23T04:43:30;8.45;;;7.65;;
60468;SDS011;46316;47.582;10.238;2022-07-23T04:45:55;10.18;;;9.07;;
60468;SDS011;46316;47.582;10.238;2022-07-23T04:48:21;9.38;;;8.48;;
60468;SDS011;46316;47.582;10.238;2022-07-23T04:50:46;9.90;;;7.13;;
60468;SDS011;46316;47.582;10.238;2022-07-23T04:53:12;9.27;;;7.43;;
60468;SDS011;46316;47.582;10.238;2022-07-23T04:55:37;9.30;;;8.40;;
60468;SDS011;46316;47.582;10.238;2022-07-23T04:58:03;9.27;;;8.38;;
60468;SDS011;46316;47.582;10.238;2022-07-23T05:00:29;10.38;;;8.18;;
60468;SDS011;46316;47.582;10.238;2022-07-23T05:02:54;9.02;;;8.23;;
60468;SDS011;46316;47.582;10.238;2022-07-23T05:05:20;9.07;;;8.18;;
60468;SDS011;46316;47.582;10.238;2022-07-23T05:07:45;9.00;;;8.05;;
60468;SDS011;46316;47.582;10.238;2022-07-23T05:10:11;9.20;;;8.40;;
60468;SDS011;46316;47.582;10.238;2022-07-23T05:12:36;9.50;;;8.60;;
60468;SDS011;46316;47.582;10.238;2022-07-23T05:15:02;10.25;;;8.90;;
60468;SDS011;46316;47.582;10.238;2022-07-23T05:17:28;9.50;;;8.60;;
60468;SDS011;46316;47.582;10.238;2022-07-23T05:19:53;9.48;;;8.68;;
60468;SDS011;46316;47.582;10.238;2022-07-23T05:22:19;9.07;;;7.85;;
60468;SDS011;46316;47.582;10.238;2022-07-23T05:24:44;9.25;;;8.38;;
60468;SDS011;46316;47.582;10.238;2022-07-23T05:27:10;9.13;;;8.10;;
60468;SDS011;46316;47.582;10.238;2022-07-23T05:29:35;9.65;;;8.68;;
60468;SDS011;46316;47.582;10.238;2022-07-23T05:32:01;9.95;;;8.73;;
60468;SDS011;46316;47.582;10.238;2022-07-23T05:34:26;9.20;;;8.25;;
60468;SDS011;46316;47.582;10.238;2022-07-23T05:36:52;8.75;;;7.93;;
60468;SDS011;46316;47.582;10.238;2022-07-23T05:39:17;9.05;;;8.02;;
60468;SDS011;46316;47.582;10.238;2022-07-23T05:41:43;7.78;;;7.00;;
60468;SDS011;46316;47.582;10.238;2022-07-23T05:44:08;8.30;;;7.55;;
60468;SDS011;46316;47.582;10.238;2022-07-23T05:46:34;8.68;;;7.80;;
60468;SDS011;46316;47.582;10.238;2022-07-23T05:48:59;7.90;;;7.13;;
60468;SDS011;46316;47.582;10.238;2022-07-23T05:51:25;8.25;;;7.45;;
60468;SDS011;46316;47.582;10.238;2022-07-23T05:53:50;8.20;;;7.40;;
60468;SDS011;46316;47.582;10.238;2022-07-23T05:56:17;8.00;;;7.30;;
60468;SDS011;46316;47.582;10.238;2022-07-23T05:58:43;7.43;;;6.72;;
60468;SDS011;46316;47.582;10.238;2022-07-23T06:01:09;7.38;;;6.68;;
60468;SDS011;46316;47.582;10.238;2022-07-23T06:03:36;7.07;;;6.38;;
60468;SDS011;46316;47.582;10.238;2022-07-23T06:06:02;6.28;;;5.68;;
60468;SDS011;46316;47.582;10.238;2022-07-23T06:08:28;5.95;;;5.40;;
60468;SDS011;46316;47.582;10.238;2022-07-23T06:10:53;7.32;;;6.15;;
60468;SDS011;46316;47.582;10.238;2022-07-23T06:13:19;6.65;;;5.95;;
60468;SDS011;46316;47.582;10.238;2022-07-23T06:15:45;6.57;;;5.97;;
60468;SDS011;46316;47.582;10.238;2022-07-23T06:18:10;6.45;;;5.88;;
60468;SDS011;46316;47.582;10.238;2022-07-23T06:20:36;7.78;;;7.07;;
60468;SDS011;46316;47.582;10.238;2022-07-23T06:23:02;8.07;;;7.38;;
60468;SDS011;46316;47.582;10.238;2022-07-23T06:25:28;7.20;;;6.50;;
60468;SDS011;46316;47.582;10.238;2022-07-23T06:27:53;7.32;;;6.63;;
60468;SDS011;46316;47.582;10.238;2022-07-23T06:30:19;7.18;;;6.50;;
60468;SDS011;46316;47.582;10.238;2022-07-23T06:32:45;7.28;;;6.57;;
60468;SDS011;46316;47.582;10.238;2022-07-23T06:35:11;7.88;;;6.97;;
60468;SDS011;46316;47.582;10.238;2022-07-23T06:37:37;8.18;;;7.28;;
60468;SDS011;46316;47.582;10.238;2022-07-23T06:40:02;9.52;;;8.65;;
60468;SDS011;46316;47.582;10.238;2022-07-23T06:42:28;8.65;;;7.85;;
60468;SDS011;46316;47.582;10.238;2022-07-23T06:44:54;8.63;;;7.70;;
60468;SDS011;46316;47.582;10.238;2022-07-23T06:47:19;7.32;;;6.60;;
60468;SDS011;46316;47.582;10.238;2022-07-23T06:49:45;7.78;;;7.07;;
60468;SDS011;46316;47.582;10.238;2022-07-23T06:52:11;8.10;;;7.40;;
60468;SDS011;46316;47.582;10.238;2022-07-23T06:54:37;8.73;;;7.93;;
60468;SDS011;46316;47.582;10.238;2022-07-23T06:57:03;7.47;;;6.78;;
60468;SDS011;46316;47.582;10.238;2022-07-23T06:59:28;7.07;;;6.47;;
60468;SDS011;46316;47.582;10.238;2022-07-23T07:01:54;7.90;;;7.10;;
60468;SDS011;46316;47.582;10.238;2022-07-23T07:04:19;7.85;;;7.15;;
60468;SDS011;46316;47.582;10.238;2022-07-23T07:06:45;8.15;;;7.35;;
60468;SDS011;46316;47.582;10.238;2022-07-23T07:09:10;8.18;;;7.38;;
60468;SDS011;46316;47.582;10.238;2022-07-23T07:11:36;7.88;;;7.00;;
60468;SDS011;46316;47.582;10.238;2022-07-23T07:14:02;8.02;;;7.32;;
60468;SDS011;46316;47.582;10.238;2022-07-23T07:16:29;9.80;;;6.65;;
60468;SDS011;46316;47.582;10.238;2022-07-23T07:18:54;7.75;;;7.05;;
60468;SDS011;46316;47.582;10.238;2022-07-23T07:21:20;7.90;;;7.20;;
60468;SDS011;46316;47.582;10.238;2022-07-23T07:23:45;8.52;;;7.60;;
60468;SDS011;46316;47.582;10.238;2022-07-23T07:26:11;9.50;;;7.43;;
60468;SDS011;46316;47.582;10.238;2022-07-23T07:28:36;8.30;;;7.32;;
60468;SDS011;46316;47.582;10.238;2022-07-23T07:31:02;8.20;;;7.25;;
60468;SDS011;46316;47.582;10.238;2022-07-23T07:33:28;11.23;;;7.70;;
60468;SDS011;46316;47.582;10.238;2022-07-23T07:35:54;8.23;;;7.43;;
60468;SDS011;46316;47.582;10.238;2022-07-23T07:38:19;8.00;;;7.20;;
60468;SDS011;46316;47.582;10.238;2022-07-23T07:40:45;8.52;;;7.72;;
60468;SDS011;46316;47.582;10.238;2022-07-23T07:43:10;8.85;;;7.93;;
60468;SDS011;46316;47.582;10.238;2022-07-23T07:45:36;9.15;;;7.25;;
60468;SDS011;46316;47.582;10.238;2022-07-23T07:48:02;6.35;;;5.68;;
60468;SDS011;46316;47.582;10.238;2022-07-23T07:50:27;8.25;;;6.15;;
60468;SDS011;46316;47.582;10.238;2022-07-23T07:52:53;6.57;;;5.97;;
60468;SDS011;46316;47.582;10.238;2022-07-23T07:55:19;6.80;;;6.20;;
60468;SDS011;46316;47.582;10.238;2022-07-23T07:57:44;6.88;;;6.22;;
60468;SDS011;46316;47.582;10.238;2022-07-23T08:00:10;7.53;;;6.15;;
60468;SDS011;46316;47.582;10.238;2022-07-23T08:02:40;6.28;;;5.68;;
60468;SDS011;46316;47.582;10.238;2022-07-23T08:05:20;7.25;;;5.80;;
60468;SDS011;46316;47.582;10.238;2022-07-23T08:07:48;6.10;;;5.43;;
60468;SDS011;46316;47.582;10.238;2022-07-23T08:10:14;7.47;;;6.13;;
60468;SDS011;46316;47.582;10.238;2022-07-23T08:15:06;6.10;;;5.38;;
60468;SDS011;46316;47.582;10.238;2022-07-23T08:17:33;6.82;;;6.13;;
60468;SDS011;46316;47.582;10.238;2022-07-23T08:19:58;7.82;;;6.68;;
60468;SDS011;46316;47.582;10.238;2022-07-23T08:22:23;7.32;;;6.72;;
60468;SDS011;46316;47.582;10.238;2022-07-23T08:24:49;7.05;;;6.38;;
60468;SDS011;46316;47.582;10.238;2022-07-23T08:27:14;7.15;;;6.45;;
60468;SDS011;46316;47.582;10.238;2022-07-23T08:29:40;6.97;;;6.28;;
60468;SDS011;46316;47.582;10.238;2022-07-23T08:32:05;7.68;;;6.53;;
60468;SDS011;46316;47.582;10.238;2022-07-23T08:34:31;7.75;;;6.03;;
60468;SDS011;46316;47.582;10.238;2022-07-23T08:36:56;6.72;;;6.03;;
60468;SDS011;46316;47.582;10.238;2022-07-23T08:39:22;7.50;;;6.80;;
60468;SDS011;46316;47.582;10.238;2022-07-23T08:41:48;6.93;;;6.22;;
60468;SDS011;46316;47.582;10.238;2022-07-23T08:44:15;6.30;;;5.70;;
60468;SDS011;46316;47.582;10.238;2022-07-23T08:46:41;8.07;;;6.63;;
60468;SDS011;46316;47.582;10.238;2022-07-23T08:49:09;7.35;;;6.63;;
60468;SDS011;46316;47.582;10.238;2022-07-23T08:51:35;8.55;;;6.40;;
60468;SDS011;46316;47.582;10.238;2022-07-23T08:54:00;7.40;;;6.50;;
60468;SDS011;46316;47.582;10.238;2022-07-23T08:56:26;7.03;;;6.32;;
60468;SDS011;46316;47.582;10.238;2022-07-23T08:58:53;7.00;;;6.40;;
60468;SDS011;46316;47.582;10.238;2022-07-23T09:01:19;6.78;;;5.90;;
60468;SDS011;46316;47.582;10.238;2022-07-23T09:03:44;7.25;;;6.65;;
60468;SDS011;46316;47.582;10.238;2022-07-23T09:06:10;6.75;;;6.15;;
60468;SDS011;46316;47.582;10.238;2022-07-23T09:11:04;6.80;;;6.20;;
60468;SDS011;46316;47.582;10.238;2022-07-23T09:13:46;8.65;;;6.45;;
60468;SDS011;46316;47.582;10.238;2022-07-23T09:16:19;6.38;;;5.88;;
60468;SDS011;46316;47.582;10.238;2022-07-23T09:23:43;6.53;;;5.93;;
60468;SDS011;46316;47.582;10.238;2022-07-23T09:26:22;8.35;;;6.55;;
60468;SDS011;46316;47.582;10.238;2022-07-23T09:31:32;7.03;;;6.38;;
60468;SDS011;46316;47.582;10.238;2022-07-23T09:39:16;7.18;;;6.57;;
60468;SDS011;46316;47.582;10.238;2022-07-23T09:41:51;7.90;;;6.65;;
60468;SDS011;46316;47.582;10.238;2022-07-23T09:44:18;6.43;;;5.82;;
60468;SDS011;46316;47.582;10.238;2022-07-23T09:46:46;7.90;;;7.20;;
60468;SDS011;46316;47.582;10.238;2022-07-23T09:49:19;7.65;;;6.93;;
60468;SDS011;46316;47.582;10.238;2022-07-23T09:51:47;8.35;;;6.85;;
60468;SDS011;46316;47.582;10.238;2022-07-23T09:54:23;7.82;;;7.13;;
60468;SDS011;46316;47.582;10.238;2022-07-23T09:56:52;8.95;;;8.10;;
60468;SDS011;46316;47.582;10.238;2022-07-23T09:59:18;8.20;;;7.45;;
60468;SDS011;46316;47.582;10.238;2022-07-23T10:01:52;8.70;;;7.72;;
60468;SDS011;46316;47.582;10.238;2022-07-23T10:04:20;8.35;;;7.55;;
60468;SDS011;46316;47.582;10.238;2022-07-23T10:06:47;8.13;;;7.32;;
60468;SDS011;46316;47.582;10.238;2022-07-23T10:09:16;7.78;;;6.97;;
60468;SDS011;46316;47.582;10.238;2022-07-23T10:11:47;7.75;;;6.93;;
60468;SDS011;46316;47.582;10.238;2022-07-23T10:14:13;8.88;;;6.72;;
60468;SDS011;46316;47.582;10.238;2022-07-23T10:16:40;6.03;;;5.47;;
60468;SDS011;46316;47.582;10.238;2022-07-23T10:19:05;6.38;;;5.78;;
60468;SDS011;46316;47.582;10.238;2022-07-23T10:21:42;6.60;;;6.00;;
60468;SDS011;46316;47.582;10.238;2022-07-23T10:24:25;6.55;;;5.95;;
60468;SDS011;46316;47.582;10.238;2022-07-23T10:30:00;5.72;;;5.18;;
60468;SDS011;46316;47.582;10.238;2022-07-23T10:32:36;5.97;;;5.47;;
60468;SDS011;46316;47.582;10.238;2022-07-23T10:40:34;5.63;;;5.13;;
60468;SDS011;46316;47.582;10.238;2022-07-23T10:43:00;5.40;;;4.90;;
60468;SDS011;46316;47.582;10.238;2022-07-23T10:45:30;5.53;;;5.03;;
60468;SDS011;46316;47.582;10.238;2022-07-23T10:48:13;5.55;;;4.82;;
60468;SDS011;46316;47.582;10.238;2022-07-23T10:56:17;5.03;;;4.63;;
60468;SDS011;46316;47.582;10.238;2022-07-23T10:59:03;4.93;;;4.53;;
60468;SDS011;46316;47.582;10.238;2022-07-23T11:01:36;4.57;;;4.18;;
60468;SDS011;46316;47.582;10.238;2022-07-23T11:04:02;5.22;;;4.30;;
60468;SDS011;46316;47.582;10.238;2022-07-23T11:07:33;4.93;;;4.43;;
60468;SDS011;46316;47.582;10.238;2022-07-23T11:09:28;4.82;;;4.43;;
60468;SDS011;46316;47.582;10.238;2022-07-23T11:17:23;5.20;;;4.68;;
60468;SDS011;46316;47.582;10.238;2022-07-23T11:22:54;6.20;;;5.22;;
60468;SDS011;46316;47.582;10.238;2022-07-23T11:27:54;6.55;;;5.82;;
60468;SDS011;46316;47.582;10.238;2022-07-23T11:35:35;5.25;;;4.75;;
60468;SDS011;46316;47.582;10.238;2022-07-23T11:38:03;4.80;;;4.43;;
60468;SDS011;46316;47.582;10.238;2022-07-23T11:40:32;4.68;;;4.25;;
60468;SDS011;46316;47.582;10.238;2022-07-23T11:42:59;5.07;;;4.57;;
60468;SDS011;46316;47.582;10.238;2022-07-23T11:45:40;4.95;;;4.50;;
60468;SDS011;46316;47.582;10.238;2022-07-23T11:50:46;4.70;;;4.30;;
60468;SDS011;46316;47.582;10.238;2022-07-23T11:53:12;5.35;;;4.85;;
60468;SDS011;46316;47.582;10.238;2022-07-23T11:55:45;4.85;;;4.35;;
60468;SDS011;46316;47.582;10.238;2022-07-23T11:58:11;5.68;;;4.20;;
60468;SDS011;46316;47.582;10.238;2022-07-23T12:00:40;5.95;;;4.70;;
60468;SDS011;46316;47.582;10.238;2022-07-23T12:05:33;4.80;;;4.30;;
60468;SDS011;46316;47.582;10.238;2022-07-23T12:08:00;4.97;;;4.57;;
60468;SDS011;46316;47.582;10.238;2022-07-23T12:10:39;5.00;;;4.47;;
60468;SDS011;46316;47.582;10.238;2022-07-23T12:13:10;5.78;;;4.72;;
60468;SDS011;46316;47.582;10.238;2022-07-23T12:15:39;5.05;;;4.55;;
60468;SDS011;46316;47.582;10.238;2022-07-23T12:18:07;5.03;;;4.63;;
60468;SDS011;46316;47.582;10.238;2022-07-23T12:20:39;5.75;;;5.25;;
60468;SDS011;46316;47.582;10.238;2022-07-23T12:23:07;5.30;;;4.70;;
60468;SDS011;46316;47.582;10.238;2022-07-23T12:25:35;5.47;;;4.93;;
60468;SDS011;46316;47.582;10.238;2022-07-23T12:28:06;6.75;;;5.72;;
60468;SDS011;46316;47.582;10.238;2022-07-23T12:31:08;7.97;;;5.70;;
60468;SDS011;46316;47.582;10.238;2022-07-23T12:33:30;5.53;;;4.97;;
60468;SDS011;46316;47.582;10.238;2022-07-23T12:35:58;5.00;;;4.47;;
60468;SDS011;46316;47.582;10.238;2022-07-23T12:38:26;5.63;;;4.85;;
60468;SDS011;46316;47.582;10.238;2022-07-23T12:40:54;5.03;;;4.63;;
60468;SDS011;46316;47.582;10.238;2022-07-23T12:43:31;5.47;;;4.95;;
60468;SDS011;46316;47.582;10.238;2022-07-23T12:48:34;7.40;;;5.50;;
60468;SDS011;46316;47.582;10.238;2022-07-23T12:53:43;6.82;;;5.25;;
60468;SDS011;46316;47.582;10.238;2022-07-23T12:56:14;6.25;;;5.65;;
60468;SDS011;46316;47.582;10.238;2022-07-23T13:01:33;5.55;;;5.10;;
60468;SDS011;46316;47.582;10.238;2022-07-23T13:04:04;5.47;;;5.00;;
60468;SDS011;46316;47.582;10.238;2022-07-23T13:06:35;5.70;;;5.07;;
60468;SDS011;46316;47.582;10.238;2022-07-23T13:09:06;5.80;;;5.30;;
60468;SDS011;46316;47.582;10.238;2022-07-23T13:11:33;6.63;;;5.28;;
60468;SDS011;46316;47.582;10.238;2022-07-23T13:13:59;6.05;;;5.05;;
60468;SDS011;46316;47.582;10.238;2022-07-23T13:16:29;5.90;;;4.93;;
60468;SDS011;46316;47.582;10.238;2022-07-23T13:18:56;5.53;;;5.03;;
60468;SDS011;46316;47.582;10.238;2022-07-23T13:21:22;5.43;;;4.88;;
60468;SDS011;46316;47.582;10.238;2022-07-23T13:23:51;6.10;;;5.60;;
60468;SDS011;46316;47.582;10.238;2022-07-23T13:33:07;6.07;;;5.47;;
60468;SDS011;46316;47.582;10.238;2022-07-23T13:35:34;6.00;;;5.32;;
60468;SDS011;46316;47.582;10.238;2022-07-23T13:38:23;6.18;;;5.57;;
60468;SDS011;46316;47.582;10.238;2022-07-23T13:40:50;6.72;;;6.13;;
60468;SDS011;46316;47.582;10.238;2022-07-23T13:43:22;6.70;;;6.07;;
60468;SDS011;46316;47.582;10.238;2022-07-23T13:46:17;6.07;;;5.47;;
60468;SDS011;46316;47.582;10.238;2022-07-23T13:48:43;6.00;;;5.40;;
60468;SDS011;46316;47.582;10.238;2022-07-23T13:51:08;7.28;;;5.72;;
60468;SDS011;46316;47.582;10.238;2022-07-23T13:53:34;5.70;;;5.15;;
60468;SDS011;46316;47.582;10.238;2022-07-23T13:56:02;7.00;;;5.38;;
60468;SDS011;46316;47.582;10.238;2022-07-23T13:58:28;8.00;;;5.45;;
60468;SDS011;46316;47.582;10.238;2022-07-23T14:00:54;6.05;;;5.45;;
60468;SDS011;46316;47.582;10.238;2022-07-23T14:03:28;6.18;;;5.68;;
60468;SDS011;46316;47.582;10.238;2022-07-23T14:05:53;5.93;;;5.20;;
60468;SDS011;46316;47.582;10.238;2022-07-23T14:08:19;5.65;;;5.15;;
60468;SDS011;46316;47.582;10.238;2022-07-23T14:10:45;5.50;;;5.00;;
60468;SDS011;46316;47.582;10.238;2022-07-23T14:13:11;5.97;;;5.47;;
60468;SDS011;46316;47.582;10.238;2022-07-23T14:15:38;5.28;;;4.88;;
60468;SDS011;46316;47.582;10.238;2022-07-23T14:18:11;5.50;;;5.00;;
60468;SDS011;46316;47.582;10.238;2022-07-23T14:20:37;5.40;;;5.00;;
60468;SDS011;46316;47.582;10.238;2022-07-23T14:23:02;6.68;;;5.13;;
60468;SDS011;46316;47.582;10.238;2022-07-23T14:25:28;5.85;;;5.22;;
60468;SDS011;46316;47.582;10.238;2022-07-23T14:27:54;6.78;;;5.25;;
60468;SDS011;46316;47.582;10.238;2022-07-23T14:30:19;5.45;;;4.95;;
60468;SDS011;46316;47.582;10.238;2022-07-23T14:32:48;6.60;;;4.55;;
60468;SDS011;46316;47.582;10.238;2022-07-23T14:35:16;5.78;;;5.25;;
60468;SDS011;46316;47.582;10.238;2022-07-23T14:37:43;6.55;;;5.55;;
60468;SDS011;46316;47.582;10.238;2022-07-23T14:40:09;5.22;;;4.72;;
60468;SDS011;46316;47.582;10.238;2022-07-23T14:46:00;5.57;;;5.18;;
60468;SDS011;46316;47.582;10.238;2022-07-23T14:48:26;6.00;;;5.30;;
60468;SDS011;46316;47.582;10.238;2022-07-23T14:50:51;6.85;;;6.25;;
60468;SDS011;46316;47.582;10.238;2022-07-23T14:53:17;5.28;;;4.88;;
60468;SDS011;46316;47.582;10.238;2022-07-23T14:55:43;5.50;;;5.00;;
60468;SDS011;46316;47.582;10.238;2022-07-23T14:58:09;5.57;;;5.15;;
60468;SDS011;46316;47.582;10.238;2022-07-23T15:04:39;8.15;;;7.30;;
60468;SDS011;46316;47.582;10.238;2022-07-23T15:10:24;6.22;;;5.65;;
60468;SDS011;46316;47.582;10.238;2022-07-23T15:12:57;6.10;;;5.57;;
60468;SDS011;46316;47.582;10.238;2022-07-23T15:15:22;6.38;;;5.85;;
60468;SDS011;46316;47.582;10.238;2022-07-23T15:17:48;6.95;;;6.30;;
60468;SDS011;46316;47.582;10.238;2022-07-23T15:20:13;6.15;;;5.57;;
60468;SDS011;46316;47.582;10.238;2022-07-23T15:22:43;5.80;;;5.30;;
60468;SDS011;46316;47.582;10.238;2022-07-23T15:32:03;6.57;;;5.85;;
60468;SDS011;46316;47.582;10.238;2022-07-23T15:34:29;6.60;;;6.05;;
60468;SDS011;46316;47.582;10.238;2022-07-23T15:36:55;9.15;;;6.15;;
60468;SDS011;46316;47.582;10.238;2022-07-23T15:39:24;5.93;;;5.43;;
60468;SDS011;46316;47.582;10.238;2022-07-23T15:41:49;6.35;;;5.75;;
60468;SDS011;46316;47.582;10.238;2022-07-23T15:44:15;6.57;;;5.97;;
60468;SDS011;46316;47.582;10.238;2022-07-23T15:46:40;8.32;;;6.38;;
60468;SDS011;46316;47.582;10.238;2022-07-23T15:49:06;7.47;;;6.78;;
60468;SDS011;46316;47.582;10.238;2022-07-23T15:51:31;6.70;;;5.90;;
60468;SDS011;46316;47.582;10.238;2022-07-23T15:53:57;6.80;;;6.05;;
60468;SDS011;46316;47.582;10.238;2022-07-23T15:56:22;6.55;;;5.95;;
60468;SDS011;46316;47.582;10.238;2022-07-23T15:58:48;8.50;;;6.85;;